Abbott Park, Illinois
Current Conditions -  °F | °C
As of 2:55 PM on Wednesday 26 Nov 2014 (Local Time) from KUGN Reporting Station
Haze Haze  
Wind Chill: 29°   Ceiling: 2300
Heat Index: 29°   Visibility: 6mi
Dew Point: 23°   Wind: 0mph
Humidity: 78%   Direction: NA
Pressure: 30.11"   Gusts: NA
Location:  42.3271°N, 87.865°W
Report Text: KUGN 262055Z 00000KT 6SM HZ OVC023 M02/M05 A3011 RMK AO2 SLP214 T10171050 55003
Loading
Personal Weather Stations






























Interactive Weather Map New forecast layout! Learn more

10-Day Weather Forecast

Advertisements
Track Severe Weather on mobile